Time;durP1;ratioP1;P1;durP2;ratioP2;P2;SDS_P1;SDS_P2;PMS_P1;PMS_P2;Temp;Humidity;BMP_temperature;BMP_pressure;BME280_temperature;BME280_humidity;BME280_pressure;Samples;Min_cycle;Max_cycle;Signal;HPM_P1;HPM_P2
2021/11/10 00:01:26;;;;;;;17.55;4.68;;;;;;;12.62;43.26;102294.44;5013332;28;20057;-59
2021/11/10 00:03:51;;;;;;;17.75;5.13;;;;;;;12.63;43.46;102301.53;5013167;28;20022;-58
2021/11/10 00:06:17;;;;;;;9.93;4.68;;;;;;;12.60;42.87;102301.75;5012738;28;20084;-59
2021/11/10 00:08:42;;;;;;;13.80;5.03;;;;;;;12.58;43.67;102300.16;5016059;28;20052;-59
2021/11/10 00:11:08;;;;;;;9.30;5.03;;;;;;;12.54;43.79;102277.13;5016512;28;20057;-59
2021/11/10 00:13:33;;;;;;;9.40;4.90;;;;;;;12.51;43.68;102274.63;5017849;28;20022;-58
2021/11/10 00:15:58;;;;;;;10.75;5.28;;;;;;;12.47;43.64;102279.38;5001926;28;20033;-58
2021/11/10 00:18:24;;;;;;;13.70;4.55;;;;;;;12.44;43.65;102289.47;5015108;28;20014;-58
2021/11/10 00:20:49;;;;;;;8.38;4.80;;;;;;;12.40;43.58;102294.19;5017102;28;20025;-59
2021/11/10 00:23:15;;;;;;;10.75;4.68;;;;;;;12.37;43.63;102288.19;5003769;28;20116;-59
2021/11/10 00:25:40;;;;;;;10.52;4.22;;;;;;;12.32;43.57;102295.69;5020872;28;20032;-59
2021/11/10 00:28:06;;;;;;;9.70;4.95;;;;;;;12.26;43.81;102303.19;5024259;28;20056;-59
2021/11/10 00:30:32;;;;;;;5.53;3.55;;;;;;;12.20;43.75;102292.88;5022169;28;20030;-59
2021/11/10 00:32:58;;;;;;;9.75;4.60;;;;;;;12.12;43.69;102289.84;5023495;28;20025;-60
2021/11/10 00:35:23;;;;;;;14.27;4.05;;;;;;;12.08;42.93;102298.22;5023961;28;20467;-59
2021/11/10 00:37:48;;;;;;;10.48;4.07;;;;;;;12.03;43.26;102298.50;5016573;28;20036;-59
2021/11/10 00:40:15;;;;;;;6.72;4.25;;;;;;;11.99;43.10;102298.81;5013280;28;20109;-59
2021/11/10 00:42:40;;;;;;;13.43;4.35;;;;;;;11.91;43.81;102285.06;5013306;28;20077;-59
2021/11/10 00:45:07;;;;;;;7.07;4.18;;;;;;;11.92;43.28;102294.84;5013650;28;20107;-58
2021/11/10 00:47:32;;;;;;;10.80;4.60;;;;;;;11.88;43.60;102291.50;5013387;28;20437;-58
2021/11/10 00:49:58;;;;;;;12.23;4.65;;;;;;;11.85;43.38;102291.69;5013595;28;20113;-59
2021/11/10 00:52:24;;;;;;;8.20;4.20;;;;;;;11.82;43.64;102291.88;5013645;28;20407;-58
2021/11/10 00:54:50;;;;;;;6.82;3.97;;;;;;;11.80;43.54;102291.13;5013466;28;20029;-59
2021/11/10 00:57:16;;;;;;;6.75;3.75;;;;;;;11.77;43.38;102283.28;5013439;28;20029;-58
2021/11/10 00:59:42;;;;;;;10.65;4.30;;;;;;;11.76;43.48;102280.69;5013359;28;20026;-59
2021/11/10 01:02:07;;;;;;;10.95;3.72;;;;;;;11.73;43.65;102268.31;5015867;28;20097;-59
2021/11/10 01:04:32;;;;;;;6.82;4.65;;;;;;;11.68;43.09;102263.25;5017353;28;20034;-59
2021/11/10 01:06:58;;;;;;;7.07;3.80;;;;;;;11.68;43.07;102267.75;5000046;28;20093;-59
2021/11/10 01:09:24;;;;;;;8.98;4.85;;;;;;;11.68;43.55;102268.59;5017527;28;20029;-60
2021/11/10 01:11:49;;;;;;;9.18;4.43;;;;;;;11.65;43.93;102273.31;5017466;28;20144;-58
2021/11/10 01:14:16;;;;;;;12.52;5.05;;;;;;;11.64;43.59;102267.06;5017843;28;20046;-59
2021/11/10 01:16:41;;;;;;;9.68;3.72;;;;;;;11.60;43.52;102259.34;4983181;28;20026;-58
2021/11/10 01:19:07;;;;;;;13.07;4.43;;;;;;;11.61;43.55;102261.06;5017245;28;20434;-59
2021/11/10 01:21:32;;;;;;;7.30;3.95;;;;;;;11.59;43.65;102260.28;5017064;28;20018;-59
2021/11/10 01:23:58;;;;;;;10.68;4.28;;;;;;;11.55;43.33;102264.16;5016893;28;20112;-58
2021/11/10 01:26:23;;;;;;;8.05;4.40;;;;;;;11.55;43.56;102261.47;5017256;28;20029;-58
2021/11/10 01:28:49;;;;;;;6.65;3.83;;;;;;;11.52;43.58;102256.28;5017288;28;20029;-58
2021/11/10 01:31:14;;;;;;;13.35;5.10;;;;;;;11.50;43.59;102263.59;5017031;28;20033;-59
2021/11/10 01:33:40;;;;;;;8.80;4.38;;;;;;;11.46;42.91;102262.94;5016834;28;20030;-58
2021/11/10 01:36:05;;;;;;;11.85;4.32;;;;;;;11.44;43.60;102248.75;5016667;28;20688;-59
2021/11/10 01:38:30;;;;;;;8.27;4.00;;;;;;;11.42;43.63;102249.78;5016393;28;20394;-58
2021/11/10 01:40:56;;;;;;;10.18;4.70;;;;;;;11.39;43.84;102250.00;5016833;28;20074;-59
2021/11/10 01:43:21;;;;;;;8.95;4.00;;;;;;;11.37;43.21;102251.91;5016786;28;20045;-59
2021/11/10 01:45:47;;;;;;;8.93;4.07;;;;;;;11.35;43.93;102238.63;5016504;28;20037;-58
2021/11/10 01:48:13;;;;;;;9.27;3.90;;;;;;;11.33;43.43;102237.00;5016576;28;20022;-58
2021/11/10 01:50:38;;;;;;;10.23;3.92;;;;;;;11.31;43.57;102238.91;5017031;28;20141;-58
2021/11/10 01:53:04;;;;;;;5.15;3.65;;;;;;;11.28;43.77;102236.44;5016516;28;20129;-59
2021/11/10 01:55:30;;;;;;;9.45;3.83;;;;;;;11.25;43.61;102226.75;5016721;28;20034;-59
2021/11/10 01:57:55;;;;;;;7.00;3.85;;;;;;;11.21;43.75;102221.69;4998900;28;20025;-58
2021/11/10 02:00:25;;;;;;;11.70;4.43;;;;;;;11.21;43.78;102219.00;5016253;28;20475;-58
2021/11/10 02:02:51;;;;;;;6.57;3.50;;;;;;;11.18;43.35;102224.56;5016404;28;20109;-59
2021/11/10 02:05:17;;;;;;;11.68;3.75;;;;;;;11.17;43.52;102222.88;4998754;28;20201;-59
2021/11/10 02:07:44;;;;;;;6.88;4.03;;;;;;;11.15;43.47;102219.41;5016122;28;20654;-58
2021/11/10 02:10:12;;;;;;;6.50;3.10;;;;;;;11.13;43.71;102221.31;5016147;28;20036;-58
2021/11/10 02:12:38;;;;;;;9.13;4.13;;;;;;;11.06;43.28;102216.34;5015875;28;20021;-58
2021/11/10 02:15:08;;;;;;;7.43;3.70;;;;;;;11.08;43.82;102219.78;4998565;28;20137;-59
2021/11/10 02:17:35;;;;;;;7.60;3.20;;;;;;;11.05;43.40;102229.88;5015707;28;20499;-59
2021/11/10 02:20:02;;;;;;;8.88;3.85;;;;;;;11.02;43.92;102233.59;5016182;28;20061;-59
2021/11/10 02:22:28;;;;;;;10.38;4.55;;;;;;;11.03;43.71;102243.34;5016017;28;20033;-58
2021/11/10 02:24:53;;;;;;;8.48;3.85;;;;;;;11.02;43.54;102232.75;5015987;28;20059;-58
2021/11/10 02:27:21;;;;;;;5.45;3.03;;;;;;;11.00;43.75;102226.59;4998336;28;20091;-59
2021/11/10 02:29:48;;;;;;;6.93;3.10;;;;;;;10.97;43.86;102227.66;5016177;28;20038;-59
2021/11/10 02:32:14;;;;;;;7.90;4.00;;;;;;;10.95;43.82;102226.03;5015957;28;20018;-59
2021/11/10 02:34:43;;;;;;;8.30;4.07;;;;;;;10.93;43.87;102236.88;5016173;28;20104;-58
2021/11/10 02:37:10;;;;;;;8.05;3.50;;;;;;;10.89;43.70;102235.31;5015497;28;20030;-58
2021/11/10 02:39:36;;;;;;;6.22;3.33;;;;;;;10.90;43.80;102241.53;5015637;28;20100;-59
2021/11/10 02:42:05;;;;;;;7.82;3.55;;;;;;;10.87;43.52;102239.94;4987092;28;20559;-57
2021/11/10 02:44:31;;;;;;;7.20;3.78;;;;;;;10.81;43.96;102248.34;4996384;28;20046;-56
2021/11/10 02:46:56;;;;;;;7.75;3.97;;;;;;;10.79;43.69;102244.91;4996059;28;20034;-56
2021/11/10 02:49:22;;;;;;;6.95;3.13;;;;;;;10.81;43.73;102248.34;4995768;28;20026;-57
2021/11/10 02:52:01;;;;;;;4.13;2.97;;;;;;;10.79;43.46;102249.41;4996392;28;20503;-57
2021/11/10 02:54:27;;;;;;;16.38;3.47;;;;;;;10.76;43.31;102250.47;4996217;28;20303;-56
2021/11/10 02:56:54;;;;;;;8.57;3.58;;;;;;;10.71;44.46;102247.22;4995819;28;20542;-57
2021/11/10 02:59:20;;;;;;;8.95;4.07;;;;;;;10.70;43.77;102250.84;4962335;28;20026;-56
2021/11/10 03:01:46;;;;;;;10.75;3.67;;;;;;;10.71;43.60;102241.84;4995112;28;20034;-56
2021/11/10 03:04:26;;;;;;;6.32;3.17;;;;;;;10.71;43.75;102247.22;4996264;28;20471;-57
2021/11/10 03:06:52;;;;;;;9.05;3.38;;;;;;;10.64;44.32;102234.25;4978353;28;20109;-57
2021/11/10 03:09:22;;;;;;;10.77;3.90;;;;;;;10.69;44.15;102249.09;4978181;28;20443;-57
2021/11/10 03:11:48;;;;;;;7.90;3.80;;;;;;;10.68;43.94;102242.03;4995522;28;20096;-57
2021/11/10 03:14:14;;;;;;;9.32;3.30;;;;;;;10.67;43.90;102231.41;4995579;28;20030;-57
2021/11/10 03:16:40;;;;;;;5.95;3.55;;;;;;;10.68;43.74;102228.63;4995735;28;20497;-57
2021/11/10 03:19:06;;;;;;;9.23;3.90;;;;;;;10.64;44.11;102224.41;4995526;28;20113;-57
2021/11/10 03:21:31;;;;;;;5.32;3.60;;;;;;;10.68;43.94;102231.31;4977751;28;20030;-57
2021/11/10 03:23:57;;;;;;;7.35;3.60;;;;;;;10.65;43.70;102231.50;4994976;28;20034;-57
2021/11/10 03:26:22;;;;;;;5.97;3.28;;;;;;;10.67;43.75;102239.44;4994926;28;20571;-57
2021/11/10 03:28:48;;;;;;;6.43;3.13;;;;;;;10.66;44.00;102240.41;4995728;28;20416;-56
2021/11/10 03:31:14;;;;;;;7.80;3.25;;;;;;;10.60;44.22;102238.97;4995082;28;20117;-57
2021/11/10 03:33:39;;;;;;;5.72;3.30;;;;;;;10.63;44.23;102254.88;4977674;28;20109;-58
2021/11/10 03:36:05;;;;;;;5.45;3.40;;;;;;;10.61;43.60;102247.88;4977715;28;20061;-56
2021/11/10 03:38:30;;;;;;;6.60;3.83;;;;;;;10.56;43.94;102249.94;4995017;28;20030;-57
2021/11/10 03:40:56;;;;;;;5.85;3.10;;;;;;;10.53;44.10;102259.03;4997092;28;20057;-56
2021/11/10 03:43:21;;;;;;;6.32;3.72;;;;;;;10.52;44.07;102262.69;5014090;28;20029;-57
2021/11/10 03:45:46;;;;;;;7.70;3.35;;;;;;;10.50;43.85;102264.59;5014618;28;20088;-57
2021/11/10 03:48:12;;;;;;;5.72;3.15;;;;;;;10.50;43.68;102257.41;5014463;28;20037;-56
2021/11/10 03:50:39;;;;;;;4.82;3.28;;;;;;;10.47;43.88;102246.03;4997062;28;20534;-57
2021/11/10 03:53:05;;;;;;;9.90;4.13;;;;;;;10.46;44.21;102253.22;5014593;28;20478;-57
2021/11/10 03:55:36;;;;;;;7.90;3.95;;;;;;;10.45;44.18;102267.56;4996770;28;20050;-56
2021/11/10 03:58:07;;;;;;;9.32;3.50;;;;;;;10.46;43.63;102261.25;4997669;28;20113;-56
2021/11/10 04:00:32;;;;;;;7.50;3.58;;;;;;;10.45;43.73;102253.28;5014571;28;20382;-57
2021/11/10 04:02:58;;;;;;;6.60;3.75;;;;;;;10.45;43.84;102259.53;5014303;28;20044;-57
2021/11/10 04:05:25;;;;;;;10.00;3.50;;;;;;;10.44;43.96;102255.09;5014201;28;20025;-57
2021/11/10 04:07:50;;;;;;;5.93;3.60;;;;;;;10.44;44.26;102254.28;4997046;28;20100;-57
2021/11/10 04:10:16;;;;;;;7.05;3.60;;;;;;;10.38;43.92;102251.97;5014557;28;20030;-56
2021/11/10 04:12:41;;;;;;;6.50;4.00;;;;;;;10.41;43.89;102259.81;5014112;28;20383;-57
2021/11/10 04:15:07;;;;;;;7.60;3.92;;;;;;;10.40;43.56;102263.44;5014044;28;20029;-56
2021/11/10 04:17:32;;;;;;;7.38;3.67;;;;;;;10.40;44.64;102266.09;5014045;28;20033;-57
2021/11/10 04:19:58;;;;;;;9.30;3.50;;;;;;;10.39;44.56;102261.69;4996464;28;20459;-57
2021/11/10 04:22:23;;;;;;;7.65;3.22;;;;;;;10.38;44.23;102266.22;5013498;28;20072;-57
2021/11/10 04:24:50;;;;;;;5.10;3.10;;;;;;;10.35;44.57;102265.53;5014024;28;20037;-57
2021/11/10 04:27:18;;;;;;;5.82;3.55;;;;;;;10.35;44.07;102265.53;5013983;28;20025;-57
2021/11/10 04:29:45;;;;;;;9.52;3.58;;;;;;;10.33;43.56;102262.94;5014030;28;20526;-57
2021/11/10 04:32:10;;;;;;;6.20;3.40;;;;;;;10.30;43.89;102260.44;5013957;28;20033;-57
2021/11/10 04:34:36;;;;;;;9.35;3.70;;;;;;;10.28;43.65;102248.97;5014110;28;20025;-57
2021/11/10 04:37:01;;;;;;;6.88;3.65;;;;;;;10.25;43.68;102248.28;4995677;28;20029;-56
2021/11/10 04:39:26;;;;;;;5.68;3.30;;;;;;;10.23;44.03;102250.19;4995720;28;20029;-56
2021/11/10 04:41:52;;;;;;;5.65;2.92;;;;;;;10.25;43.94;102258.97;5013579;28;20112;-56
2021/11/10 04:44:17;;;;;;;9.00;3.83;;;;;;;10.23;43.97;102244.84;5013691;28;20029;-57
2021/11/10 04:46:43;;;;;;;7.82;3.35;;;;;;;10.23;45.08;102234.13;5013862;28;20032;-56
2021/11/10 04:49:08;;;;;;;5.50;3.53;;;;;;;10.20;44.22;102229.81;5013850;28;20060;-56
2021/11/10 04:51:34;;;;;;;9.63;4.05;;;;;;;10.17;43.90;102223.78;4979618;28;20037;-57
2021/11/10 04:54:06;;;;;;;7.00;3.40;;;;;;;10.19;44.37;102243.31;5030314;28;20044;-57
2021/11/10 04:56:32;;;;;;;6.97;4.57;;;;;;;10.17;44.30;102239.84;5034218;28;20104;-57
2021/11/10 04:58:57;;;;;;;5.50;3.33;;;;;;;10.17;44.53;102240.72;5033876;28;20449;-57
2021/11/10 05:01:26;;;;;;;11.15;3.53;;;;;;;10.13;43.91;102224.94;5033487;28;20033;-57
2021/11/10 05:03:52;;;;;;;7.68;2.92;;;;;;;10.15;44.43;102221.22;5034011;28;20562;-56
2021/11/10 05:06:19;;;;;;;7.00;3.88;;;;;;;10.14;43.79;102229.31;5016506;28;20437;-56
2021/11/10 05:08:45;;;;;;;9.02;3.50;;;;;;;10.12;43.92;102237.41;5034339;28;20442;-57
2021/11/10 05:11:10;;;;;;;5.53;3.67;;;;;;;10.11;44.37;102234.81;5033853;28;20028;-57
2021/11/10 05:13:35;;;;;;;8.40;3.38;;;;;;;10.12;43.83;102233.88;5034017;28;20479;-56
2021/11/10 05:16:01;;;;;;;10.25;4.22;;;;;;;10.11;43.81;102235.69;5034069;28;20104;-57
2021/11/10 05:18:26;;;;;;;6.35;3.60;;;;;;;10.06;43.74;102215.50;5016243;28;20490;-57
2021/11/10 05:20:51;;;;;;;5.35;3.47;;;;;;;10.07;45.06;102219.91;5033971;28;20047;-57
2021/11/10 05:23:18;;;;;;;5.82;4.00;;;;;;;10.03;44.47;102204.97;4999619;28;20029;-57
2021/11/10 05:25:43;;;;;;;6.88;3.58;;;;;;;10.10;44.67;102217.06;5033553;28;20033;-57
2021/11/10 05:28:09;;;;;;;8.90;3.88;;;;;;;10.12;44.58;102217.81;5034013;28;20036;-56
2021/11/10 05:30:36;;;;;;;8.00;4.38;;;;;;;10.12;43.85;102215.13;5033914;28;20030;-56
2021/11/10 05:33:03;;;;;;;10.65;3.28;;;;;;;10.12;44.39;102217.81;5016552;28;20025;-57
2021/11/10 05:35:28;;;;;;;7.93;3.50;;;;;;;10.12;44.32;102212.47;5033723;28;20026;-56
2021/11/10 05:37:54;;;;;;;7.20;3.63;;;;;;;10.12;43.71;102220.50;5033453;28;20035;-57
2021/11/10 05:40:19;;;;;;;7.55;3.53;;;;;;;10.08;44.16;102230.50;5033987;28;20037;-57
2021/11/10 05:42:44;;;;;;;5.85;3.42;;;;;;;10.06;44.11;102226.19;5033464;28;20060;-57
2021/11/10 05:45:10;;;;;;;9.55;3.10;;;;;;;10.05;44.51;102229.84;5034001;28;20026;-57
2021/11/10 05:47:35;;;;;;;4.80;3.33;;;;;;;9.98;43.64;102217.78;5034084;28;20105;-57
2021/11/10 05:50:02;;;;;;;5.88;3.08;;;;;;;9.98;43.54;102228.47;5037761;28;20029;-58
2021/11/10 05:52:28;;;;;;;6.60;3.40;;;;;;;9.99;43.92;102230.22;5037546;28;20533;-56
2021/11/10 05:54:54;;;;;;;9.15;4.93;;;;;;;9.93;44.14;102216.25;5037228;28;20104;-56
2021/11/10 05:57:20;;;;;;;8.18;3.65;;;;;;;10.01;44.02;102220.28;5037349;28;20029;-57
2021/11/10 05:59:45;;;;;;;12.88;3.92;;;;;;;10.00;44.15;102223.88;5037312;28;20032;-57
2021/11/10 06:02:11;;;;;;;11.45;4.53;;;;;;;9.98;44.20;102229.34;5037536;28;20025;-56
2021/11/10 06:04:37;;;;;;;8.23;3.55;;;;;;;9.99;44.07;102231.09;5019740;28;20075;-57
2021/11/10 06:07:04;;;;;;;8.00;4.32;;;;;;;10.01;44.19;102217.59;5019388;28;20017;-57
2021/11/10 06:09:30;;;;;;;6.35;3.40;;;;;;;10.02;44.82;102208.63;5036796;28;20029;-56
2021/11/10 06:11:55;;;;;;;7.38;3.20;;;;;;;10.07;44.63;102201.16;5019634;28;20022;-56
2021/11/10 06:14:20;;;;;;;9.05;3.75;;;;;;;10.09;44.56;102199.25;5036829;28;20108;-57
2021/11/10 06:16:46;;;;;;;9.98;4.38;;;;;;;10.11;44.40;102203.56;5036713;28;20040;-56
2021/11/10 06:19:11;;;;;;;7.18;3.28;;;;;;;10.13;44.21;102211.56;5036943;28;20032;-56
2021/11/10 06:21:36;;;;;;;5.25;2.78;;;;;;;10.12;44.13;102223.16;5036726;28;20024;-57
2021/11/10 06:24:02;;;;;;;9.27;3.40;;;;;;;10.10;44.56;102209.03;5036682;28;20060;-57
2021/11/10 06:26:27;;;;;;;5.35;3.15;;;;;;;10.07;44.35;102209.19;5036708;28;20032;-56
2021/11/10 06:28:52;;;;;;;8.38;3.55;;;;;;;10.05;44.40;102219.16;5037218;28;20041;-56
2021/11/10 06:31:18;;;;;;;6.18;2.90;;;;;;;10.04;44.59;102207.56;5019671;28;20025;-57
2021/11/10 06:33:43;;;;;;;6.57;2.88;;;;;;;10.02;43.52;102197.91;5036849;28;20429;-56
2021/11/10 06:36:08;;;;;;;7.38;3.30;;;;;;;9.99;44.61;102204.31;5018685;28;20493;-57
2021/11/10 06:38:34;;;;;;;6.75;2.80;;;;;;;10.01;44.54;102206.88;5028156;28;20040;-57
2021/11/10 06:41:00;;;;;;;4.85;3.00;;;;;;;9.98;44.55;102218.63;5036854;28;20108;-57
2021/11/10 06:43:26;;;;;;;6.50;3.25;;;;;;;9.95;44.61;102211.66;5037057;28;20025;-57
2021/11/10 06:45:52;;;;;;;4.25;3.03;;;;;;;9.92;44.39;102209.16;5036604;28;20032;-57
2021/11/10 06:48:18;;;;;;;10.43;4.18;;;;;;;9.89;44.57;102206.66;5036172;28;20056;-57
2021/11/10 06:50:43;;;;;;;6.50;3.35;;;;;;;9.83;44.12;102209.69;5035539;28;20053;-57
2021/11/10 06:53:09;;;;;;;7.57;4.15;;;;;;;9.85;43.98;102213.13;5035640;28;20033;-58
2021/11/10 06:55:35;;;;;;;7.88;3.00;;;;;;;9.81;44.86;102211.59;5035339;28;20390;-57
2021/11/10 06:58:01;;;;;;;6.47;2.72;;;;;;;9.83;43.95;102217.72;5017664;28;20021;-57
2021/11/10 07:00:26;;;;;;;6.88;3.53;;;;;;;9.70;43.94;102207.84;5036066;28;20026;-57
2021/11/10 07:02:51;;;;;;;6.18;3.45;;;;;;;9.84;44.01;102227.50;5036198;28;20029;-57
2021/11/10 07:05:17;;;;;;;5.53;3.00;;;;;;;9.83;44.85;102239.13;5035991;28;20033;-57
2021/11/10 07:07:42;;;;;;;9.48;3.25;;;;;;;9.85;43.76;102244.41;5036099;28;20100;-57
2021/11/10 07:10:08;;;;;;;6.40;3.17;;;;;;;9.79;43.89;102245.63;5035899;28;20029;-58
2021/11/10 07:12:33;;;;;;;6.88;3.50;;;;;;;9.83;44.90;102248.97;5035894;28;20131;-57
2021/11/10 07:14:59;;;;;;;5.60;3.50;;;;;;;9.82;44.54;102245.47;5035543;28;20029;-57
2021/11/10 07:17:24;;;;;;;8.05;3.10;;;;;;;9.77;44.03;102244.84;5035912;28;20479;-58
2021/11/10 07:19:51;;;;;;;5.38;3.20;;;;;;;9.81;44.06;102254.44;5036019;28;20025;-57
2021/11/10 07:22:17;;;;;;;6.70;3.63;;;;;;;9.80;44.65;102251.81;5035668;28;20449;-57
2021/11/10 07:24:43;;;;;;;8.07;3.17;;;;;;;9.78;44.42;102257.28;5034974;28;20025;-58
2021/11/10 07:27:08;;;;;;;6.63;3.40;;;;;;;9.76;44.17;102259.19;5024195;28;20033;-57
2021/11/10 07:29:34;;;;;;;5.63;3.17;;;;;;;9.82;44.30;102266.00;5026930;28;20394;-58
2021/11/10 07:31:59;;;;;;;7.15;3.40;;;;;;;9.82;44.02;102277.56;5023866;28;20412;-57
2021/11/10 07:34:24;;;;;;;6.65;3.40;;;;;;;9.84;44.53;102275.66;5032028;28;20029;-58
2021/11/10 07:36:50;;;;;;;10.82;3.17;;;;;;;9.84;43.94;102270.31;5035265;28;20053;-57
2021/11/10 07:39:15;;;;;;;8.02;3.65;;;;;;;9.89;44.20;102283.41;5035064;28;20104;-57
2021/11/10 07:41:41;;;;;;;6.72;3.47;;;;;;;9.91;44.65;102285.03;5017230;28;20056;-57
2021/11/10 07:44:10;;;;;;;5.60;2.75;;;;;;;9.94;44.23;102287.53;5017342;28;20553;-58
2021/11/10 07:46:36;;;;;;;7.10;3.58;;;;;;;9.98;44.75;102282.88;5017760;28;20041;-57
2021/11/10 07:49:01;;;;;;;10.50;3.17;;;;;;;10.04;44.17;102284.34;5035125;28;20021;-57
2021/11/10 07:51:27;;;;;;;9.45;3.80;;;;;;;10.08;44.16;102278.69;5035139;28;20029;-58
2021/11/10 07:53:54;;;;;;;5.97;3.35;;;;;;;10.15;44.86;102282.78;5034629;28;20032;-57
2021/11/10 07:56:20;;;;;;;8.38;3.40;;;;;;;10.18;44.11;102279.06;5034784;28;20489;-58
2021/11/10 07:58:45;;;;;;;6.60;4.43;;;;;;;10.28;44.53;102285.59;5034440;28;20024;-58
2021/11/10 08:01:11;;;;;;;8.48;3.72;;;;;;;10.35;44.40;102292.31;5034554;28;20029;-58
2021/11/10 08:03:37;;;;;;;6.72;3.88;;;;;;;10.42;44.04;102288.31;5034375;28;20108;-58
2021/11/10 08:06:03;;;;;;;8.40;3.50;;;;;;;10.47;43.86;102291.56;5016910;28;20147;-58
2021/11/10 08:08:29;;;;;;;8.98;3.95;;;;;;;10.55;44.16;102294.66;5034391;28;20066;-58
2021/11/10 08:10:56;;;;;;;6.40;4.00;;;;;;;10.66;44.62;102302.03;5033966;28;20466;-57
2021/11/10 08:13:23;;;;;;;5.85;3.00;;;;;;;10.74;44.51;102316.69;5034488;28;20021;-57
2021/11/10 08:15:50;;;;;;;7.07;3.58;;;;;;;10.83;44.46;102305.38;5034625;28;20025;-57
2021/11/10 08:18:15;;;;;;;10.73;4.20;;;;;;;10.92;44.47;102304.81;5034135;28;20108;-58
2021/11/10 08:20:41;;;;;;;8.68;3.35;;;;;;;10.98;44.37;102299.09;5034055;28;20454;-58
2021/11/10 08:23:07;;;;;;;10.82;4.20;;;;;;;11.05;44.35;102302.25;5034215;28;20025;-58
2021/11/10 08:25:32;;;;;;;8.85;3.95;;;;;;;11.19;44.84;102298.72;5034203;28;20059;-57
2021/11/10 08:27:58;;;;;;;8.75;3.72;;;;;;;11.29;44.08;102291.78;5034460;28;20104;-58
2021/11/10 08:30:24;;;;;;;8.10;3.85;;;;;;;11.40;44.63;102291.97;5034233;28;20034;-58
2021/11/10 08:32:51;;;;;;;8.27;3.70;;;;;;;11.48;44.45;102286.97;5033971;28;20494;-58
2021/11/10 08:35:17;;;;;;;9.95;4.03;;;;;;;11.56;44.75;102280.13;5033803;28;20029;-58
2021/11/10 08:37:43;;;;;;;9.20;4.28;;;;;;;11.65;44.72;102271.50;5022761;28;20068;-57
2021/11/10 08:40:10;;;;;;;6.93;4.07;;;;;;;11.77;44.40;102277.91;5024180;28;20034;-58
2021/11/10 08:42:36;;;;;;;7.78;3.90;;;;;;;11.86;44.17;102277.31;5013960;28;20503;-57
2021/11/10 08:45:10;;;;;;;10.02;4.35;;;;;;;11.97;44.03;102268.53;5014515;28;20386;-58
2021/11/10 08:47:37;;;;;;;9.40;4.15;;;;;;;12.09;43.83;102275.75;5014509;28;20025;-59
2021/11/10 08:50:05;;;;;;;8.70;4.50;;;;;;;12.20;43.89;102271.38;4996600;28;20493;-60
2021/11/10 08:52:30;;;;;;;9.75;3.95;;;;;;;12.36;43.93;102271.22;4980394;28;20376;-60
2021/11/10 08:54:56;;;;;;;8.07;4.25;;;;;;;12.53;43.45;102267.34;5014255;28;20048;-60
2021/11/10 08:57:21;;;;;;;9.27;3.72;;;;;;;12.66;44.31;102278.97;5014225;28;20467;-60
2021/11/10 08:59:47;;;;;;;11.02;4.35;;;;;;;12.75;44.09;102281.03;5014148;28;20028;-59
2021/11/10 09:02:12;;;;;;;11.25;4.70;;;;;;;12.84;44.61;102283.06;5013904;28;20030;-59
2021/11/10 09:04:38;;;;;;;8.65;3.88;;;;;;;12.94;43.81;102276.06;4996337;28;20502;-59
2021/11/10 09:07:04;;;;;;;9.63;3.92;;;;;;;13.05;43.71;102286.03;5013579;28;20022;-59
2021/11/10 09:09:30;;;;;;;9.13;4.65;;;;;;;13.13;43.72;102279.19;5014039;28;20065;-58
2021/11/10 09:11:55;;;;;;;6.53;3.53;;;;;;;13.23;44.38;102269.47;4996476;28;20061;-59
2021/11/10 09:14:20;;;;;;;14.15;4.10;;;;;;;13.35;44.74;102273.97;5013948;28;20018;-59
2021/11/10 09:16:46;;;;;;;5.70;3.83;;;;;;;13.52;44.47;102263.78;5013629;28;20069;-60
2021/11/10 09:19:11;;;;;;;8.30;4.30;;;;;;;13.62;44.34;102264.84;5014117;28;20030;-59
2021/11/10 09:21:37;;;;;;;8.25;4.38;;;;;;;13.74;43.77;102261.22;5013876;28;20022;-59
2021/11/10 09:24:03;;;;;;;11.27;4.30;;;;;;;13.87;44.28;102270.13;5016393;28;20061;-58
2021/11/10 09:26:29;;;;;;;13.45;4.45;;;;;;;14.00;44.20;102270.91;5018162;28;20393;-59
2021/11/10 09:28:54;;;;;;;7.90;3.88;;;;;;;14.14;43.62;102267.16;5018014;28;20045;-59
2021/11/10 09:31:22;;;;;;;9.30;4.43;;;;;;;14.23;43.87;102270.03;5017650;28;20029;-59
2021/11/10 09:33:48;;;;;;;12.10;4.43;;;;;;;14.40;44.25;102271.47;5000567;28;20026;-59
2021/11/10 09:36:14;;;;;;;8.50;4.88;;;;;;;14.54;43.92;102264.00;5000457;28;20125;-59
2021/11/10 09:38:40;;;;;;;5.72;3.70;;;;;;;14.75;43.33;102268.69;5018034;28;20034;-59
2021/11/10 09:41:08;;;;;;;11.65;4.15;;;;;;;14.99;43.15;102258.69;5000407;28;20038;-60
2021/11/10 09:43:38;;;;;;;8.63;4.20;;;;;;;15.36;43.63;102260.13;5018056;28;20029;-59
2021/11/10 09:46:06;;;;;;;12.73;4.25;;;;;;;15.80;42.71;102253.75;5018015;28;20047;-60
2021/11/10 09:48:33;;;;;;;10.93;3.83;;;;;;;16.26;42.63;102258.88;5017955;28;20489;-59
2021/11/10 09:50:59;;;;;;;13.68;3.90;;;;;;;16.47;41.69;102265.13;5000288;28;20022;-59
2021/11/10 09:53:25;;;;;;;18.23;4.78;;;;;;;16.54;41.94;102269.06;4999998;28;20475;-59
2021/11/10 09:55:51;;;;;;;8.45;4.53;;;;;;;16.60;43.02;102268.53;5018096;28;20076;-59
2021/11/10 09:58:17;;;;;;;8.25;4.28;;;;;;;16.51;42.13;102272.00;5000319;28;20475;-59
2021/11/10 10:00:50;;;;;;;5.70;4.03;;;;;;;16.51;43.32;102269.28;4999109;28;20033;-59
2021/11/10 10:03:16;;;;;;;9.57;4.20;;;;;;;16.46;43.82;102276.09;4999652;28;20390;-59
2021/11/10 10:05:44;;;;;;;10.85;4.25;;;;;;;16.45;43.14;102277.94;4983700;28;20022;-59
2021/11/10 10:08:09;;;;;;;10.77;5.07;;;;;;;16.49;43.06;102273.13;5017631;28;20053;-59
2021/11/10 10:10:35;;;;;;;8.93;4.15;;;;;;;16.50;42.82;102275.69;5000154;28;20105;-59
2021/11/10 10:13:02;;;;;;;9.18;4.45;;;;;;;16.48;42.83;102283.09;5017223;28;20018;-60
2021/11/10 10:15:30;;;;;;;10.25;4.15;;;;;;;16.62;42.34;102279.22;5017308;28;20153;-60
2021/11/10 10:17:58;;;;;;;8.15;3.78;;;;;;;16.72;42.04;102291.81;5017273;28;20029;-59
2021/11/10 10:20:31;;;;;;;8.70;3.97;;;;;;;16.85;43.12;102295.19;5017715;28;20034;-59
2021/11/10 10:23:06;;;;;;;9.85;4.70;;;;;;;17.11;42.37;102287.50;5017583;28;20088;-59
2021/11/10 10:25:49;;;;;;;8.98;3.95;;;;;;;17.39;42.94;102285.88;5017160;28;20034;-59
2021/11/10 10:28:36;;;;;;;13.82;4.53;;;;;;;17.76;41.76;102278.84;5017401;28;20055;-60
2021/11/10 10:31:32;;;;;;;7.20;3.97;;;;;;;18.14;41.39;102266.34;5016927;28;20125;-59
2021/11/10 10:34:02;;;;;;;5.88;3.50;;;;;;;18.30;41.56;102266.59;5012642;28;20041;-59
2021/11/10 10:36:29;;;;;;;9.48;4.47;;;;;;;18.24;41.15;102256.34;4999596;28;20109;-60
2021/11/10 10:38:59;;;;;;;10.18;3.38;;;;;;;18.16;41.14;102259.78;5017174;28;20101;-59
2021/11/10 10:41:39;;;;;;;14.13;3.75;;;;;;;18.16;41.97;102269.75;5017000;28;20052;-60
2021/11/10 10:44:08;;;;;;;17.70;4.63;;;;;;;18.12;42.12;102263.75;5016698;28;20076;-60
2021/11/10 10:46:37;;;;;;;8.82;4.38;;;;;;;18.09;41.65;102264.03;5016761;28;20046;-59
2021/11/10 10:49:30;;;;;;;7.85;4.43;;;;;;;18.05;41.79;102270.75;5016838;28;20026;-59
2021/11/10 10:52:13;;;;;;;12.32;4.30;;;;;;;18.01;41.98;102267.47;5016617;28;20022;-59
2021/11/10 10:54:40;;;;;;;7.75;4.13;;;;;;;18.02;41.76;102263.78;5016728;28;20076;-59
2021/11/10 10:57:07;;;;;;;10.55;4.35;;;;;;;18.03;41.88;102265.47;5016838;28;20050;-60
2021/11/10 10:59:32;;;;;;;9.98;3.88;;;;;;;18.21;41.05;102267.47;4999375;28;20387;-59
2021/11/10 11:02:03;;;;;;;9.38;4.65;;;;;;;18.31;40.72;102265.63;5016786;28;20030;-59
2021/11/10 11:04:31;;;;;;;7.88;4.82;;;;;;;18.47;40.51;102263.16;5016545;28;20482;-60
2021/11/10 11:07:08;;;;;;;8.85;4.90;;;;;;;18.58;40.79;102266.63;5016797;28;20076;-59
2021/11/10 11:09:48;;;;;;;10.93;4.03;;;;;;;18.64;40.26;102267.88;5016574;28;20022;-59
2021/11/10 11:12:16;;;;;;;14.85;4.25;;;;;;;18.72;40.65;102265.28;5016616;28;20552;-60
2021/11/10 11:15:10;;;;;;;14.52;5.00;;;;;;;18.85;40.74;102260.38;5016176;28;20029;-60
2021/11/10 11:17:38;;;;;;;9.68;4.80;;;;;;;18.98;40.35;102255.47;5016143;28;20053;-59
2021/11/10 11:20:21;;;;;;;12.70;4.65;;;;;;;19.16;40.39;102255.53;5016299;28;20053;-59
2021/11/10 11:22:47;;;;;;;;;;;;;;;19.42;40.20;102244.88;5000149;28;20030;-59